Tuesday, January 12, 2010

Haiti-emergency to the international community. Airport weather condition.

Current Weather Conditions:
Port-Au-Prince / Aeroport International, Haiti

(MTPP) 18-34N 072-18W 34M

Conditions at


2010.01.12 2100 UTC

Wind
from the W (280 degrees) at 13 MPH (11 KT)
Visibility
greater than 7 mile(s)
Sky conditions
mostly clear
Temperature
80 F (27 C)
Dew Point
68 F (20 C)
Relative Humidity
65%
Pressure (altimeter)
30.00 in. Hg (1016 hPa)
ob
MTPP 122100Z 28011KT 9999 FEW025 27/20 Q1016 A 3001=3D











 

No comments:

Post a Comment